createdAt,value
2023-02-25T00:02:14.379Z,22.30
2023-02-25T00:04:42.381Z,22.30
2023-02-25T00:07:10.017Z,22.30
2023-02-25T00:09:37.604Z,22.30
2023-02-25T00:12:06.333Z,22.30
2023-02-25T00:14:33.848Z,22.30
2023-02-25T00:17:02.456Z,22.40
2023-02-25T00:19:30.031Z,22.40
2023-02-25T00:21:57.572Z,22.40
2023-02-25T00:24:25.239Z,22.40
2023-02-25T00:26:52.740Z,22.50
2023-02-25T00:29:20.489Z,22.50
2023-02-25T00:31:48.269Z,22.50
2023-02-25T00:34:15.907Z,22.60
2023-02-25T00:36:43.737Z,22.60
2023-02-25T00:39:11.799Z,22.60
2023-02-25T00:41:39.411Z,22.60
2023-02-25T00:44:07.513Z,22.70
2023-02-25T00:46:35.126Z,22.70
2023-02-25T00:49:03.545Z,22.70
2023-02-25T00:51:33.066Z,22.70
2023-02-25T00:54:00.777Z,22.80
2023-02-25T00:56:28.801Z,22.70
2023-02-25T00:58:56.749Z,22.80
2023-02-25T01:01:28.724Z,22.80
2023-02-25T01:03:57.322Z,22.90
2023-02-25T01:06:26.566Z,22.90
2023-02-25T01:08:54.698Z,23.00
2023-02-25T01:11:28.495Z,23.00
2023-02-25T01:14:01.138Z,23.00
2023-02-25T01:16:31.534Z,23.00
2023-02-25T01:19:00.723Z,23.10
2023-02-25T01:21:30.215Z,23.10
2023-02-25T01:23:59.029Z,23.10
2023-02-25T01:26:28.292Z,23.20
2023-02-25T01:28:57.378Z,23.20
2023-02-25T01:31:29.989Z,23.20
2023-02-25T01:34:10.959Z,23.20
2023-02-25T01:42:47.075Z,23.30
2023-02-25T01:45:20.849Z,23.30
2023-02-25T01:54:47.276Z,23.40
2023-02-25T01:57:16.808Z,23.40
2023-02-25T01:59:45.246Z,23.40
2023-02-25T02:02:14.812Z,23.50
2023-02-25T02:04:43.460Z,23.50
2023-02-25T02:07:11.144Z,23.60
2023-02-25T02:09:40.595Z,23.60
2023-02-25T02:12:08.481Z,23.70
2023-02-25T02:14:41.118Z,23.70
2023-02-25T02:17:22.208Z,23.80
2023-02-25T02:19:52.563Z,23.80
2023-02-25T02:22:39.799Z,23.90
2023-02-25T02:27:57.907Z,23.90
2023-02-25T02:30:38.126Z,24.00
2023-02-25T02:33:06.387Z,24.00
2023-02-25T02:35:40.791Z,24.10
2023-02-25T02:38:14.686Z,24.10
2023-02-25T02:40:51.448Z,24.20
2023-02-25T02:43:19.493Z,24.30
2023-02-25T02:46:00.484Z,24.30
2023-02-25T02:48:28.610Z,24.30
2023-02-25T02:50:58.384Z,24.40
2023-02-25T02:53:46.565Z,24.40
2023-02-25T02:56:16.389Z,24.40
2023-02-25T02:58:48.750Z,24.50
2023-02-25T03:01:25.965Z,24.50
2023-02-25T03:04:00.866Z,24.60
2023-02-25T03:06:35.285Z,24.70
2023-02-25T03:09:06.632Z,24.70
2023-02-25T03:11:34.244Z,24.80
2023-02-25T03:14:02.857Z,24.80
2023-02-25T03:17:00.912Z,24.90
2023-02-25T03:19:34.554Z,25.00
2023-02-25T03:22:08.273Z,25.00
2023-02-25T03:24:59.379Z,25.10
2023-02-25T03:27:38.724Z,25.10
2023-02-25T03:30:13.176Z,25.20
2023-02-25T03:32:52.214Z,25.20
2023-02-25T03:35:21.268Z,25.30
2023-02-25T03:37:53.908Z,25.30
2023-02-25T03:40:22.740Z,25.40
2023-02-25T03:42:55.169Z,25.40
2023-02-25T03:48:07.031Z,25.50
2023-02-25T03:50:38.048Z,25.50
2023-02-25T03:53:06.447Z,25.60
2023-02-25T03:55:34.855Z,25.60
2023-02-25T03:58:04.751Z,25.60
2023-02-25T04:00:33.996Z,25.70
2023-02-25T04:03:01.816Z,25.80
2023-02-25T04:05:29.450Z,25.80
2023-02-25T04:07:59.912Z,25.90
2023-02-25T04:10:29.722Z,26.00
2023-02-25T04:13:02.720Z,26.10
2023-02-25T04:15:31.508Z,26.10
2023-02-25T04:18:00.019Z,26.20
2023-02-25T04:20:30.629Z,26.20
2023-02-25T04:22:58.464Z,26.20
2023-02-25T04:25:26.372Z,26.30
2023-02-25T04:27:55.456Z,26.40
2023-02-25T04:30:23.270Z,26.40
2023-02-25T04:32:51.138Z,26.40
2023-02-25T04:35:22.138Z,26.50
2023-02-25T04:37:50.620Z,26.50
2023-02-25T04:40:20.592Z,26.50
2023-02-25T04:45:39.516Z,26.60
2023-02-25T04:48:08.223Z,26.60
2023-02-25T04:50:36.134Z,26.70
2023-02-25T04:53:03.894Z,26.70
2023-02-25T04:55:33.899Z,26.80
2023-02-25T04:58:01.473Z,26.90
2023-02-25T05:00:29.177Z,26.90
2023-02-25T05:02:59.185Z,27.00
2023-02-25T05:08:02.403Z,27.10
2023-02-25T05:10:30.968Z,26.70
2023-02-25T05:13:00.437Z,27.10
2023-02-25T05:15:28.677Z,27.10
2023-02-25T05:17:56.193Z,27.20
2023-02-25T05:20:24.297Z,27.20
2023-02-25T05:22:54.858Z,27.20
2023-02-25T05:25:22.556Z,27.20
2023-02-25T05:27:50.548Z,27.30
2023-02-25T05:30:19.878Z,27.40
2023-02-25T05:32:48.996Z,27.40
2023-02-25T05:35:16.715Z,27.50
2023-02-25T05:37:45.205Z,27.60
2023-02-25T05:40:14.420Z,27.60
2023-02-25T05:42:42.002Z,27.60
2023-02-25T05:45:10.211Z,27.70
2023-02-25T05:47:37.837Z,27.70
2023-02-25T05:50:05.760Z,27.70
2023-02-25T05:52:34.100Z,27.70
2023-02-25T05:55:03.134Z,27.80
2023-02-25T05:57:30.706Z,27.80
2023-02-25T05:59:58.330Z,27.80
2023-02-25T06:02:26.078Z,27.80
2023-02-25T06:04:55.168Z,27.90
2023-02-25T06:07:23.519Z,28.00
2023-02-25T06:09:51.106Z,28.10
2023-02-25T06:12:18.831Z,28.10
2023-02-25T06:14:46.937Z,28.10
2023-02-25T06:17:15.414Z,28.20
2023-02-25T06:19:42.952Z,28.20
2023-02-25T06:22:10.501Z,28.30
2023-02-25T06:24:38.882Z,28.40
2023-02-25T06:27:06.836Z,28.40
2023-02-25T06:29:34.498Z,28.40
2023-02-25T06:32:05.271Z,28.40
2023-02-25T06:34:33.123Z,28.40
2023-02-25T06:37:01.449Z,28.50
2023-02-25T06:39:29.176Z,28.50
2023-02-25T06:41:56.906Z,28.50
2023-02-25T06:44:25.077Z,28.50
2023-02-25T06:46:53.093Z,28.50
2023-02-25T06:49:20.947Z,28.50
2023-02-25T06:51:50.312Z,28.50
2023-02-25T06:54:18.617Z,28.50
2023-02-25T06:56:46.570Z,28.50
2023-02-25T06:59:14.270Z,28.40
2023-02-25T07:01:42.356Z,28.40
2023-02-25T07:04:18.239Z,28.40
2023-02-25T07:06:45.837Z,28.40
2023-02-25T07:09:13.590Z,28.40
2023-02-25T07:11:41.316Z,28.50
2023-02-25T07:14:09.040Z,28.50
2023-02-25T07:16:37.157Z,28.60
2023-02-25T07:19:04.980Z,28.60
2023-02-25T07:21:34.397Z,28.70
2023-02-25T07:24:02.068Z,28.70
2023-02-25T07:26:30.820Z,28.70
2023-02-25T07:28:59.911Z,28.70
2023-02-25T07:31:28.537Z,28.70
2023-02-25T07:33:56.769Z,28.70
2023-02-25T07:36:27.013Z,28.70
2023-02-25T07:38:54.766Z,28.70
2023-02-25T07:41:23.691Z,28.80
2023-02-25T07:43:51.516Z,28.80
2023-02-25T07:46:19.498Z,28.80
2023-02-25T07:48:47.061Z,28.80
2023-02-25T07:51:16.411Z,28.80
2023-02-25T07:53:44.792Z,28.80
2023-02-25T07:56:12.559Z,28.80
2023-02-25T07:58:40.663Z,28.80
2023-02-25T08:01:11.893Z,28.90
2023-02-25T08:03:49.471Z,28.90
2023-02-25T08:06:18.261Z,28.90
2023-02-25T08:08:45.899Z,29.00
2023-02-25T08:11:15.686Z,29.00
2023-02-25T08:13:43.323Z,28.90
2023-02-25T08:16:12.581Z,28.90
2023-02-25T08:18:43.062Z,28.90
2023-02-25T08:21:12.795Z,28.90
2023-02-25T08:23:41.972Z,28.90
2023-02-25T08:26:12.467Z,28.80
2023-02-25T08:28:40.386Z,28.80
2023-02-25T08:31:12.541Z,28.90
2023-02-25T08:33:41.975Z,28.90
2023-02-25T08:36:16.731Z,28.90
2023-02-25T08:38:48.722Z,28.90
2023-02-25T08:41:18.069Z,29.00
2023-02-25T08:43:48.846Z,29.00
2023-02-25T08:46:21.217Z,29.00
2023-02-25T08:48:53.248Z,29.00
2023-02-25T08:51:22.624Z,29.00
2023-02-25T08:53:50.975Z,29.00
2023-02-25T08:56:18.873Z,29.00
2023-02-25T08:58:46.402Z,29.00
2023-02-25T09:01:15.765Z,29.00
2023-02-25T09:03:57.515Z,29.00
2023-02-25T09:06:28.154Z,29.00
2023-02-25T09:08:58.017Z,29.00
2023-02-25T09:11:26.701Z,29.10
2023-02-25T09:13:55.334Z,29.00
2023-02-25T09:16:23.018Z,29.00
2023-02-25T09:18:51.871Z,29.00
2023-02-25T09:21:21.068Z,29.00
2023-02-25T09:23:52.344Z,29.00
2023-02-25T09:26:21.752Z,29.00
2023-02-25T09:28:50.145Z,29.00
2023-02-25T09:31:19.536Z,29.00
2023-02-25T09:33:48.466Z,29.00
2023-02-25T09:36:17.369Z,28.90
2023-02-25T09:38:46.556Z,28.90
2023-02-25T09:41:29.856Z,28.90
2023-02-25T09:44:09.021Z,28.90
2023-02-25T09:46:38.418Z,28.90
2023-02-25T09:49:15.795Z,28.80
2023-02-25T09:51:46.081Z,28.80
2023-02-25T09:54:14.138Z,28.80
2023-02-25T09:56:42.204Z,28.80
2023-02-25T09:59:17.905Z,28.80
2023-02-25T10:01:51.716Z,28.80
2023-02-25T10:04:25.558Z,28.80
2023-02-25T10:06:53.340Z,28.70
2023-02-25T10:09:43.060Z,28.70
2023-02-25T10:12:35.322Z,28.70
2023-02-25T10:15:03.661Z,28.60
2023-02-25T10:17:39.691Z,28.60
2023-02-25T10:20:25.583Z,28.60
2023-02-25T10:22:56.222Z,28.50
2023-02-25T10:25:27.306Z,28.50
2023-02-25T10:28:01.831Z,28.50
2023-02-25T10:30:38.845Z,28.50
2023-02-25T10:33:14.429Z,28.40
2023-02-25T10:35:43.184Z,28.40
2023-02-25T10:38:13.728Z,28.40
2023-02-25T10:40:41.536Z,28.30
2023-02-25T10:43:23.153Z,28.30
2023-02-25T10:45:55.422Z,28.30
2023-02-25T10:48:27.200Z,28.30
2023-02-25T10:51:26.013Z,28.20
2023-02-25T10:53:54.525Z,28.20
2023-02-25T10:56:22.636Z,28.20
2023-02-25T10:59:02.271Z,28.10
2023-02-25T11:01:35.759Z,28.10
2023-02-25T11:04:04.810Z,28.10
2023-02-25T11:06:35.577Z,28.00
2023-02-25T11:09:05.574Z,28.00
2023-02-25T11:11:34.929Z,28.00
2023-02-25T11:14:05.568Z,28.00
2023-02-25T11:16:35.558Z,27.90
2023-02-25T11:19:12.039Z,27.90
2023-02-25T11:21:40.029Z,27.90
2023-02-25T11:24:18.322Z,27.80
2023-02-25T11:26:47.738Z,27.80
2023-02-25T11:29:20.846Z,27.80
2023-02-25T11:31:53.028Z,27.70
2023-02-25T11:34:24.849Z,27.70
2023-02-25T11:36:53.029Z,27.60
2023-02-25T11:39:21.021Z,27.60
2023-02-25T11:41:53.600Z,27.60
2023-02-25T11:44:32.074Z,27.50
2023-02-25T11:47:05.291Z,27.50
2023-02-25T11:49:42.763Z,27.50
2023-02-25T11:52:10.555Z,27.40
2023-02-25T11:54:58.206Z,27.40
2023-02-25T11:57:48.201Z,27.40
2023-02-25T12:00:25.916Z,27.30
2023-02-25T12:02:57.300Z,27.30
2023-02-25T12:05:35.516Z,27.20
2023-02-25T12:08:33.286Z,27.20
2023-02-25T12:11:03.615Z,27.20
2023-02-25T12:13:45.101Z,27.20
2023-02-25T12:16:24.987Z,27.10
2023-02-25T12:19:11.381Z,27.10
2023-02-25T12:21:54.088Z,27.00
2023-02-25T12:24:38.540Z,26.90
2023-02-25T12:27:24.663Z,26.90
2023-02-25T12:30:07.338Z,26.90
2023-02-25T12:32:46.720Z,26.80
2023-02-25T12:35:17.307Z,26.80
2023-02-25T12:37:54.022Z,26.80
2023-02-25T12:40:24.535Z,26.70
2023-02-25T12:42:57.910Z,26.70
2023-02-25T12:45:32.914Z,26.60
2023-02-25T12:48:09.616Z,26.60
2023-02-25T12:50:46.221Z,26.60
2023-02-25T12:53:17.649Z,26.50
2023-02-25T12:55:57.832Z,26.50
2023-02-25T12:58:47.861Z,26.50
2023-02-25T13:01:22.503Z,26.50
2023-02-25T13:04:01.826Z,26.40
2023-02-25T13:06:29.304Z,26.40
2023-02-25T13:09:07.582Z,26.30
2023-02-25T13:12:10.235Z,26.30
2023-02-25T13:14:32.210Z,26.30
2023-02-25T13:17:04.051Z,26.20
2023-02-25T13:19:49.965Z,26.20
2023-02-25T13:22:18.336Z,26.20
2023-02-25T13:24:49.457Z,26.10
2023-02-25T13:27:56.971Z,26.10
2023-02-25T13:30:27.040Z,26.00
2023-02-25T13:33:11.548Z,26.00
2023-02-25T13:35:55.034Z,26.00
2023-02-25T13:38:38.767Z,25.90
2023-02-25T13:41:32.406Z,25.90
2023-02-25T13:44:15.510Z,25.80
2023-02-25T13:47:01.752Z,25.80
2023-02-25T13:49:47.272Z,25.80
2023-02-25T13:52:17.983Z,25.80
2023-02-25T13:54:54.721Z,25.70
2023-02-25T13:57:57.963Z,25.70
2023-02-25T14:01:00.522Z,25.70
2023-02-25T14:03:37.030Z,25.60
2023-02-25T14:06:10.712Z,25.60
2023-02-25T14:08:56.914Z,25.60
2023-02-25T14:11:31.377Z,25.50
2023-02-25T14:14:14.811Z,25.40
2023-02-25T14:16:53.371Z,25.40
2023-02-25T14:19:20.883Z,25.40
2023-02-25T14:22:17.401Z,25.30
2023-02-25T14:24:44.883Z,25.30
2023-02-25T14:27:12.426Z,25.20
2023-02-25T14:30:00.188Z,25.20
2023-02-25T14:32:45.616Z,25.10
2023-02-25T14:35:25.049Z,25.10
2023-02-25T14:38:05.163Z,25.00
2023-02-25T14:40:39.542Z,25.00
2023-02-25T14:43:07.162Z,24.90
2023-02-25T14:45:51.290Z,24.90
2023-02-25T14:48:25.453Z,24.80
2023-02-25T14:51:11.478Z,24.80
2023-02-25T14:53:42.188Z,24.70
2023-02-25T14:56:15.466Z,24.70
2023-02-25T14:59:10.652Z,24.60
2023-02-25T15:01:56.312Z,24.60
2023-02-25T15:04:25.429Z,24.50
2023-02-25T15:07:13.003Z,24.50
2023-02-25T15:09:47.375Z,24.50
2023-02-25T15:12:33.019Z,24.40
2023-02-25T15:15:19.550Z,24.40
2023-02-25T15:18:05.628Z,24.30
2023-02-25T15:20:35.236Z,24.30
2023-02-25T15:23:07.885Z,24.30
2023-02-25T15:25:47.937Z,24.20
2023-02-25T15:28:30.609Z,24.20
2023-02-25T15:31:03.785Z,24.10
2023-02-25T15:33:34.988Z,24.10
2023-02-25T15:36:19.901Z,24.10
2023-02-25T15:38:50.602Z,24.10
2023-02-25T15:41:27.213Z,24.10
2023-02-25T15:44:00.296Z,24.00
2023-02-25T15:46:46.517Z,24.00
2023-02-25T15:49:16.826Z,23.90
2023-02-25T15:51:46.650Z,23.90
2023-02-25T15:54:29.472Z,23.80
2023-02-25T15:57:01.685Z,23.80
2023-02-25T15:59:47.618Z,23.70
2023-02-25T16:02:27.338Z,23.70
2023-02-25T16:05:10.171Z,23.60
2023-02-25T16:07:43.194Z,23.60
2023-02-25T16:10:20.626Z,23.60
2023-02-25T16:12:49.731Z,23.60
2023-02-25T16:15:23.330Z,23.60
2023-02-25T16:17:52.430Z,23.50
2023-02-25T16:20:30.510Z,23.50
2023-02-25T16:22:59.663Z,23.40
2023-02-25T16:25:37.510Z,23.40
2023-02-25T16:28:26.670Z,23.30
2023-02-25T16:31:01.963Z,23.30
2023-02-25T16:33:48.841Z,23.20
2023-02-25T16:36:16.380Z,23.10
2023-02-25T16:38:56.102Z,23.10
2023-02-25T16:41:38.774Z,23.10
2023-02-25T16:44:07.277Z,23.10
2023-02-25T16:46:36.240Z,23.10
2023-02-25T16:49:08.202Z,23.00
2023-02-25T16:51:40.732Z,23.00
2023-02-25T16:54:14.363Z,22.90
2023-02-25T16:56:43.799Z,22.90
2023-02-25T16:59:11.310Z,22.80
2023-02-25T17:01:39.684Z,22.70
2023-02-25T17:04:07.231Z,22.60
2023-02-25T17:06:34.861Z,22.60
2023-02-25T17:09:02.401Z,22.50
2023-02-25T17:11:30.226Z,22.50
2023-02-25T17:14:00.421Z,22.50
2023-02-25T17:16:46.326Z,22.50
2023-02-25T17:19:16.510Z,22.50
2023-02-25T17:21:46.783Z,22.40
2023-02-25T17:24:20.192Z,22.40
2023-02-25T17:26:49.559Z,22.40
2023-02-25T17:29:18.244Z,22.40
2023-02-25T17:31:51.121Z,22.30
2023-02-25T17:34:23.470Z,22.30
2023-02-25T17:36:51.126Z,22.30
2023-02-25T17:39:20.069Z,22.30
2023-02-25T17:41:47.948Z,22.30
2023-02-25T17:44:33.656Z,22.20
2023-02-25T17:47:01.674Z,22.20
2023-02-25T17:49:29.194Z,22.20
2023-02-25T17:52:19.875Z,22.10
2023-02-25T17:54:49.307Z,22.10
2023-02-25T17:57:21.159Z,22.00
2023-02-25T17:59:50.947Z,22.00
2023-02-25T18:02:32.105Z,21.90
2023-02-25T18:05:22.542Z,22.00
2023-02-25T18:08:28.614Z,21.90
2023-02-25T18:11:03.490Z,21.90
2023-02-25T18:13:36.374Z,21.80
2023-02-25T18:16:13.260Z,21.80
2023-02-25T18:18:40.949Z,21.80
2023-02-25T18:21:10.225Z,21.80
2023-02-25T18:23:37.868Z,21.70
2023-02-25T18:26:08.115Z,21.70
2023-02-25T18:28:35.685Z,21.60
2023-02-25T18:31:03.318Z,21.50
2023-02-25T18:33:30.985Z,21.40
2023-02-25T18:35:58.676Z,21.40
2023-02-25T18:38:27.353Z,21.30
2023-02-25T18:40:55.643Z,21.30
2023-02-25T18:43:30.948Z,21.30
2023-02-25T18:45:59.383Z,21.30
2023-02-25T18:48:26.962Z,21.30
2023-02-25T18:50:54.929Z,21.20
2023-02-25T18:53:23.766Z,21.20
2023-02-25T18:55:52.284Z,21.20
2023-02-25T18:58:22.065Z,21.20
2023-02-25T19:00:51.335Z,21.10
2023-02-25T19:03:24.632Z,21.10
2023-02-25T19:05:52.265Z,21.10
2023-02-25T19:08:19.909Z,21.10
2023-02-25T19:10:48.246Z,21.10
2023-02-25T19:13:35.878Z,21.10
2023-02-25T19:16:03.478Z,21.00
2023-02-25T19:18:31.145Z,21.00
2023-02-25T19:20:58.733Z,20.90
2023-02-25T19:23:26.319Z,20.90
2023-02-25T19:25:57.913Z,20.90
2023-02-25T19:28:25.506Z,20.90
2023-02-25T19:30:53.404Z,20.90
2023-02-25T19:33:21.149Z,20.80
2023-02-25T19:35:48.737Z,20.80
2023-02-25T19:38:17.723Z,20.80
2023-02-25T19:40:48.957Z,20.80
2023-02-25T19:43:17.763Z,20.80
2023-02-25T19:45:45.534Z,20.80
2023-02-25T19:48:13.107Z,20.80
2023-02-25T19:50:41.557Z,20.80
2023-02-25T19:53:09.648Z,20.80
2023-02-25T19:55:39.180Z,20.80
2023-02-25T19:58:06.737Z,20.80
2023-02-25T20:00:34.321Z,20.80
2023-02-25T20:03:02.085Z,20.80
2023-02-25T20:05:29.668Z,20.80
2023-02-25T20:07:57.204Z,20.80
2023-02-25T20:10:24.736Z,20.80
2023-02-25T20:12:52.309Z,20.80
2023-02-25T20:15:20.189Z,20.80
2023-02-25T20:17:48.327Z,20.80
2023-02-25T20:20:16.511Z,20.80
2023-02-25T20:22:44.298Z,20.80
2023-02-25T20:25:13.621Z,20.70
2023-02-25T20:27:43.909Z,20.70
2023-02-25T20:30:14.626Z,20.60
2023-02-25T20:32:44.053Z,20.60
2023-02-25T20:35:17.085Z,20.50
2023-02-25T20:37:52.036Z,20.60
2023-02-25T20:40:19.779Z,20.60
2023-02-25T20:42:48.276Z,20.50
2023-02-25T20:45:16.266Z,20.40
2023-02-25T20:47:43.912Z,20.40
2023-02-25T20:50:15.540Z,20.40
2023-02-25T20:52:43.188Z,20.40
2023-02-25T20:55:11.844Z,20.40
2023-02-25T20:57:39.421Z,20.40
2023-02-25T21:00:09.241Z,20.40
2023-02-25T21:02:36.804Z,20.40
2023-02-25T21:05:04.433Z,20.40
2023-02-25T21:07:31.930Z,20.40
2023-02-25T21:09:59.487Z,20.40
2023-02-25T21:12:27.038Z,20.40
2023-02-25T21:14:54.610Z,20.40
2023-02-25T21:17:22.498Z,20.40
2023-02-25T21:19:50.075Z,20.40
2023-02-25T21:22:17.577Z,20.40
2023-02-25T21:24:45.339Z,20.40
2023-02-25T21:27:12.940Z,20.30
2023-02-25T21:29:40.482Z,20.30
2023-02-25T21:32:08.059Z,20.30
2023-02-25T21:34:37.409Z,20.20
2023-02-25T21:37:04.933Z,20.20
2023-02-25T21:39:32.637Z,20.30
2023-02-25T21:42:00.252Z,20.30
2023-02-25T21:44:28.643Z,20.30
2023-02-25T21:46:58.320Z,20.30
2023-02-25T21:49:27.485Z,20.30
2023-02-25T21:51:55.235Z,20.30
2023-02-25T21:54:23.519Z,20.30
2023-02-25T21:56:51.167Z,20.20
2023-02-25T21:59:19.078Z,20.20
2023-02-25T22:01:46.734Z,20.20
2023-02-25T22:04:14.401Z,20.20
2023-02-25T22:06:43.227Z,20.10
2023-02-25T22:09:10.797Z,20.10
2023-02-25T22:11:38.620Z,20.00
2023-02-25T22:14:07.455Z,20.00
2023-02-25T22:16:35.852Z,20.00
2023-02-25T22:19:03.886Z,19.90
2023-02-25T22:21:32.586Z,19.90
2023-02-25T22:24:01.202Z,19.80
2023-02-25T22:26:30.486Z,19.80
2023-02-25T22:28:59.649Z,19.80
2023-02-25T22:31:27.355Z,19.70
2023-02-25T22:33:56.247Z,19.70
2023-02-25T22:36:24.051Z,19.70
2023-02-25T22:38:51.868Z,19.60
2023-02-25T22:41:27.210Z,19.70
2023-02-25T22:43:54.773Z,19.70
2023-02-25T22:46:23.854Z,19.70
2023-02-25T22:48:52.092Z,19.60
2023-02-25T22:51:26.998Z,19.50
2023-02-25T22:53:55.316Z,19.50
2023-02-25T22:56:24.199Z,19.50
2023-02-25T22:58:52.037Z,19.50
2023-02-25T23:01:20.774Z,19.40
2023-02-25T23:03:49.751Z,19.40
2023-02-25T23:06:19.687Z,19.30
2023-02-25T23:08:47.654Z,19.30
2023-02-25T23:11:16.837Z,19.40
2023-02-25T23:13:48.971Z,19.30
2023-02-25T23:16:18.286Z,19.40
2023-02-25T23:18:47.449Z,19.30
2023-02-25T23:21:21.878Z,19.30
2023-02-25T23:23:55.623Z,19.30
2023-02-25T23:26:24.746Z,19.20
2023-02-25T23:29:00.196Z,19.20
2023-02-25T23:31:29.995Z,19.20
2023-02-25T23:34:01.304Z,19.20
2023-02-25T23:36:29.123Z,19.20
2023-02-25T23:38:58.148Z,19.10
2023-02-25T23:41:26.382Z,19.10
2023-02-25T23:43:55.149Z,19.10
2023-02-25T23:46:24.009Z,19.10
2023-02-25T23:49:01.973Z,19.10
2023-02-25T23:51:30.258Z,19.20
2023-02-25T23:53:59.976Z,19.30
2023-02-25T23:56:28.205Z,19.30
2023-02-25T23:58:56.326Z,19.30
